Time;durP1;ratioP1;P1;durP2;ratioP2;P2;SDS_P1;SDS_P2;PMS_P1;PMS_P2;Temp;Humidity;BMP_temperature;BMP_pressure;BME280_temperature;BME280_humidity;BME280_pressure;Samples;Min_cycle;Max_cycle;Signal;HPM_P1;HPM_P2
2023/03/17 00:00:16;;;;;;;1.90;1.25;;;17.20;50.40;;;;;;6214956;23;19993;-81
2023/03/17 00:02:44;;;;;;;1.40;1.00;;;17.20;50.30;;;;;;6214410;23;20013;-79
2023/03/17 00:05:19;;;;;;;2.08;1.05;;;17.20;50.50;;;;;;6215314;23;20000;-80
2023/03/17 00:07:46;;;;;;;1.23;0.90;;;17.10;50.40;;;;;;6214764;23;20003;-78
2023/03/17 00:10:24;;;;;;;1.05;0.88;;;17.20;50.50;;;;;;6215174;23;20003;-79
2023/03/17 00:12:54;;;;;;;1.48;1.05;;;17.20;50.60;;;;;;6214769;23;20428;-78
2023/03/17 00:15:22;;;;;;;1.15;0.90;;;17.10;50.50;;;;;;6215041;23;20435;-81
2023/03/17 00:17:49;;;;;;;1.17;0.90;;;17.20;50.70;;;;;;6214727;23;19996;-81
2023/03/17 00:20:22;;;;;;;1.55;0.88;;;17.20;50.60;;;;;;6214710;23;19996;-81
2023/03/17 00:22:48;;;;;;;1.15;0.90;;;17.20;50.60;;;;;;6215186;23;20009;-81
2023/03/17 00:25:26;;;;;;;1.83;0.90;;;17.20;50.70;;;;;;6215013;23;19993;-81
2023/03/17 00:27:54;;;;;;;1.13;0.82;;;17.20;50.70;;;;;;6215075;23;20304;-81
2023/03/17 00:30:21;;;;;;;1.20;0.82;;;17.20;51.30;;;;;;6214952;23;20375;-81
2023/03/17 00:32:50;;;;;;;0.98;0.80;;;17.20;50.70;;;;;;6214618;23;20001;-81
2023/03/17 00:35:27;;;;;;;1.13;0.90;;;17.20;50.70;;;;;;6215001;23;20083;-81
2023/03/17 00:37:56;;;;;;;1.08;0.90;;;17.20;50.70;;;;;;6214583;23;20028;-81
2023/03/17 00:40:23;;;;;;;1.35;0.60;;;17.20;51.40;;;;;;6224643;23;19996;-82
2023/03/17 00:42:51;;;;;;;1.52;0.70;;;17.20;50.70;;;;;;6224643;23;20009;-81
2023/03/17 00:45:17;;;;;;;1.85;0.98;;;17.20;50.70;;;;;;6224606;23;20524;-81
2023/03/17 00:47:44;;;;;;;0.75;0.70;;;17.20;50.80;;;;;;6224629;23;20071;-81
2023/03/17 00:50:23;;;;;;;1.70;0.65;;;17.20;50.70;;;;;;6214492;23;20007;-79
2023/03/17 00:53:09;;;;;;;0.77;0.70;;;17.20;50.70;;;;;;6213727;23;20005;-81
2023/03/17 00:55:36;;;;;;;2.13;0.77;;;17.20;50.80;;;;;;6214465;23;20579;-81
2023/03/17 00:58:09;;;;;;;1.10;0.73;;;17.20;50.60;;;;;;6214829;23;19997;-81
2023/03/17 01:00:35;;;;;;;0.70;0.60;;;17.20;50.70;;;;;;6214360;23;20016;-81
2023/03/17 01:03:01;;;;;;;1.20;0.90;;;17.20;50.70;;;;;;6224170;23;20017;-81
2023/03/17 01:05:27;;;;;;;1.05;0.65;;;17.20;50.70;;;;;;6224533;23;20123;-81
2023/03/17 01:07:56;;;;;;;1.13;0.60;;;17.20;50.60;;;;;;6215463;23;20384;-81
2023/03/17 01:10:27;;;;;;;1.63;0.88;;;17.20;50.70;;;;;;6226707;23;20020;-81
2023/03/17 01:12:56;;;;;;;1.25;0.70;;;17.20;50.60;;;;;;6226642;23;19993;-80
2023/03/17 01:15:24;;;;;;;1.65;0.85;;;17.20;50.80;;;;;;6226548;23;20296;-81
2023/03/17 01:17:51;;;;;;;1.13;0.90;;;17.20;50.70;;;;;;6226475;23;20003;-81
2023/03/17 01:20:22;;;;;;;0.93;0.50;;;17.20;50.70;;;;;;6226424;23;19997;-81
2023/03/17 01:22:49;;;;;;;0.85;0.70;;;17.20;50.70;;;;;;6226432;23;20012;-81
2023/03/17 01:25:16;;;;;;;1.17;0.80;;;17.20;50.60;;;;;;6226393;23;20486;-81
2023/03/17 01:27:43;;;;;;;0.75;0.70;;;17.20;50.60;;;;;;6214716;23;20007;-81
2023/03/17 01:30:19;;;;;;;1.20;0.82;;;17.20;50.70;;;;;;6226351;23;20428;-81
2023/03/17 01:32:45;;;;;;;0.88;0.77;;;17.20;50.70;;;;;;6216609;23;20000;-81
2023/03/17 01:35:11;;;;;;;1.25;0.88;;;17.20;50.70;;;;;;6226389;23;20001;-81
2023/03/17 01:37:37;;;;;;;0.90;0.60;;;17.20;50.80;;;;;;6226431;23;20051;-80
2023/03/17 01:40:05;;;;;;;0.82;0.73;;;17.10;50.70;;;;;;6226248;23;20098;-81
2023/03/17 01:42:30;;;;;;;1.52;0.70;;;17.20;50.70;;;;;;6226281;23;20107;-81
2023/03/17 01:44:59;;;;;;;1.17;0.88;;;17.20;50.80;;;;;;6216510;23;19996;-81
2023/03/17 01:47:29;;;;;;;0.70;0.57;;;17.20;50.80;;;;;;6216109;23;19997;-80
2023/03/17 01:49:56;;;;;;;0.95;0.57;;;17.20;50.80;;;;;;6216101;23;20000;-81
2023/03/17 01:52:22;;;;;;;1.85;1.05;;;17.20;50.80;;;;;;6226296;23;20020;-80
2023/03/17 01:55:02;;;;;;;1.13;0.60;;;17.20;50.70;;;;;;6226271;23;20424;-81
2023/03/17 01:57:52;;;;;;;1.17;0.65;;;17.10;50.70;;;;;;6226264;23;20075;-71
2023/03/17 02:00:22;;;;;;;0.88;0.80;;;17.10;50.70;;;;;;6226219;23;20459;-71
2023/03/17 02:02:50;;;;;;;0.88;0.73;;;17.10;50.70;;;;;;6225730;23;20021;-71
2023/03/17 02:05:20;;;;;;;1.38;0.60;;;17.10;50.70;;;;;;6215959;23;20020;-71
2023/03/17 02:07:46;;;;;;;0.73;0.63;;;17.10;50.70;;;;;;6214384;23;20051;-71
2023/03/17 02:10:14;;;;;;;1.27;0.70;;;17.10;50.70;;;;;;6226009;23;19997;-69
2023/03/17 02:12:43;;;;;;;1.13;0.52;;;17.10;51.20;;;;;;6226085;23;19993;-71
2023/03/17 02:15:09;;;;;;;0.80;0.68;;;17.10;50.50;;;;;;6225974;23;20024;-71
2023/03/17 02:17:35;;;;;;;1.05;0.70;;;17.10;50.60;;;;;;6226029;23;20007;-71
2023/03/17 02:20:27;;;;;;;1.23;0.60;;;17.10;50.50;;;;;;6225356;23;20000;-69
2023/03/17 02:22:56;;;;;;;2.10;0.55;;;17.10;50.50;;;;;;6202129;23;20016;-71
2023/03/17 02:25:23;;;;;;;1.73;0.68;;;17.10;51.30;;;;;;6216130;23;20003;-72
2023/03/17 02:27:54;;;;;;;1.45;0.70;;;17.10;50.60;;;;;;6225863;23;20043;-71
2023/03/17 02:30:22;;;;;;;1.20;0.50;;;17.10;50.60;;;;;;6216179;23;20369;-71
2023/03/17 02:32:49;;;;;;;0.85;0.52;;;17.10;50.70;;;;;;6216113;23;20096;-71
2023/03/17 02:35:15;;;;;;;0.93;0.60;;;17.10;50.70;;;;;;6225648;23;20088;-71
2023/03/17 02:37:42;;;;;;;2.72;0.50;;;17.10;50.70;;;;;;6225783;23;20001;-71
2023/03/17 02:40:10;;;;;;;0.85;0.60;;;17.10;50.70;;;;;;6225629;23;20377;-71
2023/03/17 02:42:35;;;;;;;0.70;0.63;;;17.10;50.70;;;;;;6225522;23;20004;-71
2023/03/17 02:45:01;;;;;;;0.88;0.43;;;17.10;50.70;;;;;;6225632;23;19997;-71
2023/03/17 02:47:27;;;;;;;1.48;0.70;;;17.10;50.80;;;;;;6225650;23;19996;-71
2023/03/17 02:49:53;;;;;;;1.20;0.82;;;17.10;50.70;;;;;;6225702;23;19993;-71
2023/03/17 02:52:19;;;;;;;0.70;0.57;;;17.10;50.70;;;;;;6213896;23;20332;-71
2023/03/17 02:54:44;;;;;;;1.08;0.70;;;17.10;50.70;;;;;;6225543;23;20000;-71
2023/03/17 02:57:10;;;;;;;1.13;0.90;;;17.10;50.70;;;;;;6225399;23;20015;-71
2023/03/17 02:59:37;;;;;;;0.93;0.60;;;17.10;50.50;;;;;;6225486;23;20003;-71
2023/03/17 03:02:02;;;;;;;0.93;0.60;;;17.00;50.50;;;;;;6225111;23;20123;-71
2023/03/17 03:04:29;;;;;;;2.20;0.63;;;17.00;50.50;;;;;;6225439;23;20024;-71
2023/03/17 03:06:55;;;;;;;0.80;0.60;;;17.10;50.50;;;;;;6225472;23;20084;-71
2023/03/17 03:09:21;;;;;;;1.45;0.70;;;17.00;50.50;;;;;;6225423;23;19997;-71
2023/03/17 03:11:47;;;;;;;1.10;0.75;;;17.00;50.50;;;;;;6225376;23;20004;-71
2023/03/17 03:14:13;;;;;;;2.05;0.63;;;17.00;50.50;;;;;;6225275;23;20072;-71
2023/03/17 03:16:39;;;;;;;0.70;0.50;;;17.00;51.20;;;;;;6215703;23;20131;-71
2023/03/17 03:19:05;;;;;;;1.20;0.60;;;17.00;50.50;;;;;;6225303;23;20432;-71
2023/03/17 03:21:31;;;;;;;0.93;0.68;;;17.00;50.60;;;;;;6225208;23;20013;-71
2023/03/17 03:23:56;;;;;;;1.00;0.70;;;17.00;50.60;;;;;;6225207;23;20480;-71
2023/03/17 03:26:22;;;;;;;0.95;0.63;;;17.00;50.40;;;;;;6225216;23;20001;-71
2023/03/17 03:28:48;;;;;;;0.70;0.50;;;17.00;51.30;;;;;;6225195;23;19993;-78
2023/03/17 03:31:14;;;;;;;1.15;0.85;;;17.00;50.60;;;;;;6215388;23;19997;-81
2023/03/17 03:33:41;;;;;;;0.60;0.60;;;17.00;50.60;;;;;;6225223;23;20116;-81
2023/03/17 03:36:07;;;;;;;0.65;0.60;;;17.00;51.30;;;;;;6225197;23;19993;-81
2023/03/17 03:38:34;;;;;;;2.35;0.95;;;17.00;50.70;;;;;;6225040;23;20031;-78
2023/03/17 03:41:00;;;;;;;0.98;0.68;;;17.00;50.70;;;;;;6225071;23;20001;-80
2023/03/17 03:43:26;;;;;;;1.40;0.70;;;17.00;50.60;;;;;;6214837;23;20000;-81
2023/03/17 03:45:53;;;;;;;1.70;0.75;;;17.00;50.70;;;;;;6215127;23;19993;-80
2023/03/17 03:48:20;;;;;;;1.00;0.70;;;17.00;50.80;;;;;;6215246;23;20085;-80
2023/03/17 03:50:47;;;;;;;0.80;0.80;;;17.00;50.80;;;;;;6215029;23;19993;-80
2023/03/17 03:53:13;;;;;;;0.90;0.52;;;17.00;50.80;;;;;;6224973;23;20000;-81
2023/03/17 03:55:39;;;;;;;1.25;0.60;;;16.90;50.80;;;;;;6215296;23;20047;-79
2023/03/17 03:58:05;;;;;;;1.00;0.68;;;17.00;50.90;;;;;;6215335;23;20000;-81
2023/03/17 04:00:31;;;;;;;0.80;0.50;;;17.00;50.90;;;;;;6215096;23;20031;-81
2023/03/17 04:02:57;;;;;;;2.38;0.60;;;17.00;50.90;;;;;;6214625;23;20013;-81
2023/03/17 04:05:24;;;;;;;0.47;0.45;;;16.90;50.70;;;;;;6215193;23;20054;-81
2023/03/17 04:07:50;;;;;;;0.63;0.60;;;17.00;50.90;;;;;;6214836;23;20515;-81
2023/03/17 04:10:16;;;;;;;0.60;0.60;;;16.90;50.90;;;;;;6214844;23;20076;-81
2023/03/17 04:12:42;;;;;;;0.82;0.47;;;16.90;50.90;;;;;;6214729;23;20450;-81
2023/03/17 04:15:12;;;;;;;0.60;0.50;;;16.90;51.00;;;;;;6215255;23;20051;-81
2023/03/17 04:17:38;;;;;;;0.50;0.40;;;16.90;50.90;;;;;;6215112;23;19993;-81
2023/03/17 04:20:05;;;;;;;1.05;0.50;;;16.90;51.70;;;;;;6224801;23;20024;-80
2023/03/17 04:22:33;;;;;;;0.70;0.43;;;16.90;51.00;;;;;;6224741;23;20087;-81
2023/03/17 04:24:59;;;;;;;0.77;0.60;;;16.90;51.00;;;;;;6224871;23;19992;-81
2023/03/17 04:27:25;;;;;;;0.82;0.50;;;16.90;51.00;;;;;;6224778;23;20050;-81
2023/03/17 04:29:51;;;;;;;0.95;0.73;;;16.90;51.00;;;;;;6224655;23;20001;-81
2023/03/17 04:32:17;;;;;;;0.82;0.60;;;16.90;51.00;;;;;;6224595;23;20428;-80
2023/03/17 04:34:42;;;;;;;0.80;0.60;;;16.90;51.10;;;;;;6224641;23;19993;-81
2023/03/17 04:37:09;;;;;;;0.60;0.50;;;16.90;51.10;;;;;;6224744;23;20004;-81
2023/03/17 04:39:35;;;;;;;1.20;0.70;;;16.90;51.10;;;;;;6224708;23;19992;-81
2023/03/17 04:42:03;;;;;;;0.80;0.60;;;16.90;51.20;;;;;;6214766;23;20015;-81
2023/03/17 04:44:28;;;;;;;1.30;0.60;;;16.90;51.20;;;;;;6224568;23;19992;-80
2023/03/17 04:46:54;;;;;;;0.60;0.60;;;16.90;51.20;;;;;;6224654;23;20051;-81
2023/03/17 04:49:20;;;;;;;1.27;0.60;;;16.90;51.30;;;;;;6214415;23;20076;-81
2023/03/17 04:51:46;;;;;;;0.55;0.47;;;16.90;51.30;;;;;;6214782;23;20004;-80
2023/03/17 04:54:12;;;;;;;0.88;0.47;;;16.90;51.30;;;;;;6214766;23;20312;-81
2023/03/17 04:56:39;;;;;;;0.65;0.50;;;16.90;52.00;;;;;;6214686;23;20000;-81
2023/03/17 04:59:05;;;;;;;0.50;0.40;;;16.90;51.30;;;;;;6214781;23;19996;-81
2023/03/17 05:01:31;;;;;;;0.50;0.50;;;16.90;52.00;;;;;;6214318;23;20019;-79
2023/03/17 05:03:57;;;;;;;0.40;0.40;;;16.90;51.40;;;;;;6214645;23;20051;-79
2023/03/17 05:06:23;;;;;;;0.50;0.43;;;16.90;51.40;;;;;;6214319;23;20024;-81
2023/03/17 05:08:50;;;;;;;1.40;0.60;;;16.90;51.40;;;;;;6214608;23;20142;-81
2023/03/17 05:11:16;;;;;;;1.30;0.40;;;16.90;51.40;;;;;;6214687;23;20332;-81
2023/03/17 05:13:42;;;;;;;0.50;0.47;;;16.90;51.40;;;;;;6214121;23;20436;-81
2023/03/17 05:16:08;;;;;;;0.50;0.50;;;17.00;51.50;;;;;;6214699;23;20005;-81
2023/03/17 05:18:35;;;;;;;0.50;0.50;;;16.90;51.40;;;;;;6214225;23;20433;-79
2023/03/17 05:21:03;;;;;;;0.32;0.30;;;16.90;51.40;;;;;;6214620;23;20019;-81
2023/03/17 05:23:29;;;;;;;1.10;0.60;;;17.00;51.50;;;;;;6214689;23;20425;-81
2023/03/17 05:25:55;;;;;;;0.68;0.55;;;17.00;52.10;;;;;;6214581;23;20162;-81
2023/03/17 05:28:21;;;;;;;0.43;0.40;;;17.00;51.50;;;;;;6214611;23;19997;-81
2023/03/17 05:30:48;;;;;;;0.77;0.50;;;16.90;51.50;;;;;;6214570;23;20023;-81
2023/03/17 05:33:15;;;;;;;0.68;0.50;;;17.00;51.50;;;;;;6214473;23;20035;-79
2023/03/17 05:35:42;;;;;;;0.68;0.40;;;16.90;51.40;;;;;;6214582;23;20324;-79
2023/03/17 05:38:10;;;;;;;0.60;0.50;;;16.90;51.50;;;;;;6214579;23;19993;-81
2023/03/17 05:40:36;;;;;;;1.95;0.50;;;17.00;51.50;;;;;;6214483;23;20028;-79
2023/03/17 05:43:04;;;;;;;0.40;0.40;;;17.00;51.50;;;;;;6214430;23;20001;-81
2023/03/17 05:45:32;;;;;;;0.50;0.50;;;17.00;51.50;;;;;;6214484;23;20357;-79
2023/03/17 05:47:58;;;;;;;0.68;0.57;;;17.00;51.40;;;;;;6214366;23;19996;-80
2023/03/17 05:50:25;;;;;;;1.02;0.60;;;17.00;51.40;;;;;;6214389;23;20087;-81
2023/03/17 05:52:52;;;;;;;0.80;0.45;;;16.90;51.30;;;;;;6214465;23;19996;-81
2023/03/17 05:55:19;;;;;;;1.23;0.88;;;17.00;51.30;;;;;;6215633;23;20011;-79
2023/03/17 05:57:45;;;;;;;0.60;0.40;;;16.90;51.30;;;;;;6216390;23;19993;-81
2023/03/17 06:00:12;;;;;;;0.75;0.45;;;17.00;51.30;;;;;;6216282;23;19997;-81
2023/03/17 06:02:39;;;;;;;0.88;0.65;;;16.90;51.40;;;;;;6215827;23;20013;-80
2023/03/17 06:05:07;;;;;;;1.05;0.40;;;16.90;51.30;;;;;;6216249;23;20305;-79
2023/03/17 06:07:33;;;;;;;1.00;0.52;;;16.90;51.40;;;;;;6226158;23;20007;-79
2023/03/17 06:09:59;;;;;;;0.80;0.50;;;16.90;51.80;;;;;;6189647;23;19997;-80
2023/03/17 06:12:25;;;;;;;1.17;0.43;;;16.90;51.10;;;;;;6214970;23;20013;-79
2023/03/17 06:14:51;;;;;;;0.70;0.63;;;16.90;51.20;;;;;;6189606;23;20036;-79
2023/03/17 06:17:18;;;;;;;1.00;0.65;;;16.90;51.30;;;;;;6189864;23;20057;-79
2023/03/17 06:19:44;;;;;;;1.10;0.60;;;17.00;51.30;;;;;;6189958;23;20309;-80
2023/03/17 06:22:10;;;;;;;0.60;0.50;;;16.90;51.10;;;;;;6189602;23;20017;-80
2023/03/17 06:24:37;;;;;;;1.52;0.60;;;16.90;51.30;;;;;;6189874;23;20013;-79
2023/03/17 06:27:03;;;;;;;0.60;0.52;;;16.90;51.30;;;;;;6189335;23;20012;-79
2023/03/17 06:29:29;;;;;;;0.70;0.52;;;16.90;51.30;;;;;;6189936;23;20011;-79
2023/03/17 06:31:55;;;;;;;0.88;0.70;;;16.90;51.40;;;;;;6189402;23;20001;-79
2023/03/17 06:34:23;;;;;;;0.57;0.50;;;16.90;51.30;;;;;;6189259;23;20008;-79
2023/03/17 06:36:49;;;;;;;0.50;0.40;;;16.90;51.30;;;;;;6189751;23;20005;-81
2023/03/17 06:39:17;;;;;;;0.85;0.65;;;16.90;51.40;;;;;;6189281;23;19997;-81
2023/03/17 06:41:43;;;;;;;0.70;0.55;;;16.90;51.40;;;;;;6189350;23;20086;-81
2023/03/17 06:44:09;;;;;;;0.98;0.60;;;16.90;51.40;;;;;;6189605;23;20310;-81
2023/03/17 06:46:35;;;;;;;0.60;0.50;;;16.90;51.40;;;;;;6189261;23;20015;-81
2023/03/17 06:49:02;;;;;;;0.95;0.73;;;16.90;51.40;;;;;;6189496;23;20309;-81
2023/03/17 06:51:29;;;;;;;0.73;0.60;;;16.90;51.50;;;;;;6189348;23;20436;-81
2023/03/17 06:53:56;;;;;;;1.30;0.60;;;16.90;51.50;;;;;;6189660;23;20008;-81
2023/03/17 06:56:22;;;;;;;0.95;0.50;;;16.90;51.40;;;;;;6214196;23;20066;-81
2023/03/17 06:58:48;;;;;;;0.75;0.63;;;16.90;51.50;;;;;;6189502;23;19997;-81
2023/03/17 07:01:15;;;;;;;0.75;0.30;;;17.00;59.90;;;;;;6193313;23;20013;-82
2023/03/17 07:03:41;;;;;;;0.63;0.50;;;16.90;51.50;;;;;;6195329;23;20017;-82
2023/03/17 07:06:07;;;;;;;0.43;0.38;;;16.90;51.50;;;;;;6194751;23;20290;-80
2023/03/17 07:08:35;;;;;;;1.02;0.88;;;16.90;52.10;;;;;;6193526;23;20498;-78
2023/03/17 07:11:03;;;;;;;0.70;0.60;;;16.90;51.50;;;;;;6189440;23;20028;-76
2023/03/17 07:13:34;;;;;;;1.13;0.70;;;16.90;51.50;;;;;;6189491;23;20329;-77
2023/03/17 07:16:04;;;;;;;0.68;0.50;;;16.90;51.50;;;;;;6190069;23;20008;-78
2023/03/17 07:18:47;;;;;;;0.73;0.47;;;16.90;51.50;;;;;;6191312;23;20016;-78
2023/03/17 07:21:14;;;;;;;1.33;0.57;;;16.90;51.60;;;;;;6188875;23;20008;-77
2023/03/17 07:23:40;;;;;;;0.82;0.50;;;16.90;51.60;;;;;;6188968;23;20516;-80
2023/03/17 07:26:06;;;;;;;0.50;0.50;;;16.90;51.60;;;;;;6188842;23;19996;-82
2023/03/17 07:28:32;;;;;;;0.75;0.55;;;16.90;51.70;;;;;;6199061;23;20016;-71
2023/03/17 07:30:59;;;;;;;0.80;0.50;;;16.90;51.60;;;;;;6189210;23;20115;-70
2023/03/17 07:33:25;;;;;;;1.08;0.35;;;16.90;51.60;;;;;;6189110;23;19997;-70
2023/03/17 07:35:51;;;;;;;1.13;0.60;;;16.90;51.60;;;;;;6198587;23;20394;-71
2023/03/17 07:38:18;;;;;;;0.40;0.40;;;16.90;51.70;;;;;;6188645;23;20498;-70
2023/03/17 07:40:46;;;;;;;0.88;0.40;;;16.90;51.70;;;;;;6189048;23;20012;-70
2023/03/17 07:43:13;;;;;;;3.10;0.70;;;16.90;51.70;;;;;;6188967;23;20009;-70
2023/03/17 07:45:40;;;;;;;3.08;0.65;;;16.90;51.80;;;;;;6189846;23;20364;-69
2023/03/17 07:48:07;;;;;;;6.32;0.70;;;16.90;52.10;;;;;;6188743;23;20004;-70
2023/03/17 07:50:34;;;;;;;4.53;0.80;;;17.00;51.90;;;;;;6188793;23;20001;-71
2023/03/17 07:53:00;;;;;;;1.58;0.50;;;17.00;52.10;;;;;;6188867;23;20043;-70
2023/03/17 07:55:26;;;;;;;1.10;0.50;;;17.00;52.10;;;;;;6188761;23;20004;-70
2023/03/17 07:57:52;;;;;;;4.38;0.43;;;16.90;52.00;;;;;;6188444;23;20004;-70
2023/03/17 08:00:20;;;;;;;1.42;0.65;;;16.90;52.00;;;;;;6188608;23;20012;-70
2023/03/17 08:02:46;;;;;;;2.30;0.47;;;16.90;51.90;;;;;;6188564;23;20023;-70
2023/03/17 08:05:13;;;;;;;5.07;0.70;;;17.00;51.90;;;;;;6188839;23;20001;-70
2023/03/17 08:07:39;;;;;;;1.23;0.65;;;16.90;51.80;;;;;;6188743;23;20001;-70
2023/03/17 08:10:07;;;;;;;5.60;1.08;;;17.00;51.80;;;;;;6214724;23;20020;-70
2023/03/17 08:12:33;;;;;;;1.17;0.60;;;17.00;51.70;;;;;;6214532;23;20444;-70
2023/03/17 08:14:59;;;;;;;2.90;0.82;;;17.00;51.80;;;;;;6224248;23;20000;-70
2023/03/17 08:17:26;;;;;;;1.40;0.88;;;17.00;51.80;;;;;;6224167;23;20309;-70
2023/03/17 08:19:53;;;;;;;1.08;0.80;;;16.90;51.80;;;;;;6215006;23;20001;-70
2023/03/17 08:22:20;;;;;;;1.35;0.95;;;17.00;52.00;;;;;;6188319;23;20476;-79
2023/03/17 08:24:46;;;;;;;1.83;1.00;;;16.90;51.80;;;;;;6215044;23;20008;-78
2023/03/17 08:27:12;;;;;;;2.20;1.00;;;17.00;51.80;;;;;;6188585;23;20000;-79
2023/03/17 08:29:38;;;;;;;3.25;0.80;;;16.90;51.70;;;;;;6214982;23;20368;-79
2023/03/17 08:32:05;;;;;;;0.95;0.85;;;16.90;51.60;;;;;;6214946;23;20004;-79
2023/03/17 08:34:32;;;;;;;1.65;1.08;;;16.90;51.50;;;;;;6214574;23;20460;-75
2023/03/17 08:36:59;;;;;;;2.75;1.00;;;16.90;51.40;;;;;;6225008;23;20008;-82
2023/03/17 08:39:25;;;;;;;3.33;0.85;;;16.90;51.50;;;;;;6214673;23;19999;-79
2023/03/17 08:41:51;;;;;;;1.73;1.20;;;16.90;51.50;;;;;;6215042;23;20008;-77
2023/03/17 08:44:18;;;;;;;2.10;1.00;;;16.90;51.60;;;;;;6214745;23;20368;-80
2023/03/17 08:46:44;;;;;;;1.90;1.20;;;16.90;51.60;;;;;;6214822;23;19997;-80
2023/03/17 08:49:11;;;;;;;1.77;0.95;;;17.00;51.60;;;;;;6214649;23;19997;-80
2023/03/17 08:51:38;;;;;;;3.78;1.10;;;17.00;51.70;;;;;;6222993;23;20001;-81
2023/03/17 08:54:05;;;;;;;3.83;0.95;;;17.00;51.80;;;;;;6214839;23;20313;-81
2023/03/17 08:56:32;;;;;;;2.47;1.00;;;17.00;51.90;;;;;;6214515;23;20072;-80
2023/03/17 08:58:59;;;;;;;1.13;0.65;;;17.00;51.90;;;;;;6214527;23;19997;-81
2023/03/17 09:01:26;;;;;;;2.05;1.25;;;17.00;52.00;;;;;;6214571;23;20040;-81
2023/03/17 09:03:53;;;;;;;1.58;0.88;;;17.00;52.00;;;;;;6214221;23;20046;-81
2023/03/17 09:06:21;;;;;;;1.02;0.93;;;17.00;52.30;;;;;;6214828;23;20000;-81
2023/03/17 09:08:51;;;;;;;1.70;0.95;;;17.10;52.30;;;;;;6214783;23;20001;-81
2023/03/17 09:11:19;;;;;;;2.08;0.80;;;17.10;52.40;;;;;;6214411;23;20003;-80
2023/03/17 09:13:46;;;;;;;2.40;0.93;;;17.10;52.60;;;;;;6214264;23;20444;-81
2023/03/17 09:16:13;;;;;;;2.88;0.85;;;17.10;53.30;;;;;;6214832;23;20022;-81
2023/03/17 09:18:40;;;;;;;1.45;0.93;;;17.20;53.20;;;;;;6214409;23;20076;-80
2023/03/17 09:21:07;;;;;;;2.75;0.93;;;17.20;52.40;;;;;;6214551;23;20388;-86
2023/03/17 09:23:33;;;;;;;2.55;1.10;;;17.20;52.30;;;;;;6215104;23;20004;-88
2023/03/17 09:26:00;;;;;;;1.30;1.02;;;17.20;52.20;;;;;;6214100;23;19996;-81
2023/03/17 09:28:27;;;;;;;2.38;1.30;;;17.20;52.10;;;;;;6214388;23;19996;-81
2023/03/17 09:31:10;;;;;;;1.70;1.30;;;17.20;52.10;;;;;;6215922;23;20020;-82
2023/03/17 09:33:40;;;;;;;4.72;1.30;;;17.30;52.20;;;;;;6216760;23;19996;-81
2023/03/17 09:36:08;;;;;;;3.40;1.73;;;17.30;52.60;;;;;;6216817;23;20075;-80
2023/03/17 09:38:33;;;;;;;3.13;1.20;;;17.30;52.00;;;;;;6226460;23;20027;-82
2023/03/17 09:41:06;;;;;;;2.63;1.30;;;17.30;52.00;;;;;;6216183;23;20376;-78
2023/03/17 09:44:03;;;;;;;6.45;1.75;;;17.40;52.10;;;;;;6216248;23;20003;-80
2023/03/17 09:46:41;;;;;;;5.25;1.30;;;17.40;52.00;;;;;;6219134;23;19996;-80
2023/03/17 09:49:12;;;;;;;3.67;1.27;;;17.40;52.10;;;;;;6216689;23;20024;-78
2023/03/17 09:51:39;;;;;;;3.83;1.40;;;17.40;52.20;;;;;;6226379;23;19993;-81
2023/03/17 09:54:17;;;;;;;3.25;1.00;;;17.40;52.20;;;;;;6226347;23;20003;-81
2023/03/17 09:56:48;;;;;;;2.25;0.98;;;17.50;52.40;;;;;;6226276;23;20004;-89
2023/03/17 09:59:31;;;;;;;1.92;1.13;;;17.40;52.30;;;;;;6226185;23;20047;-85
2023/03/17 10:01:57;;;;;;;2.13;1.25;;;17.50;52.40;;;;;;6215939;23;20012;-80
2023/03/17 10:04:23;;;;;;;1.90;1.00;;;17.50;52.60;;;;;;6216389;23;19997;-80
2023/03/17 10:06:51;;;;;;;2.47;1.25;;;17.50;52.50;;;;;;6216314;23;20023;-76
2023/03/17 10:09:35;;;;;;;2.67;1.00;;;17.50;52.50;;;;;;6216326;23;20064;-79
2023/03/17 10:12:26;;;;;;;1.40;0.93;;;17.50;52.70;;;;;;6216315;23;20008;-79
2023/03/17 10:15:01;;;;;;;3.33;1.48;;;17.50;52.60;;;;;;6216361;23;20357;-79
2023/03/17 10:17:40;;;;;;;2.17;1.50;;;17.50;52.70;;;;;;6215913;23;19993;-79
2023/03/17 10:20:18;;;;;;;2.50;0.93;;;17.60;52.90;;;;;;6226024;23;19996;-83
2023/03/17 10:23:00;;;;;;;3.55;1.38;;;17.60;53.00;;;;;;6225919;23;20005;-79
2023/03/17 10:25:35;;;;;;;1.90;1.00;;;17.60;53.00;;;;;;6216259;23;19997;-78
2023/03/17 10:28:25;;;;;;;2.28;1.00;;;17.60;53.10;;;;;;6225889;23;20001;-76
2023/03/17 10:30:52;;;;;;;2.80;1.00;;;17.60;53.20;;;;;;6226017;23;20004;-77
2023/03/17 10:33:18;;;;;;;1.75;1.05;;;17.60;53.20;;;;;;6216314;23;19992;-76
2023/03/17 10:35:45;;;;;;;1.63;1.40;;;17.60;53.40;;;;;;6216882;23;20064;-76
2023/03/17 10:38:17;;;;;;;2.75;1.10;;;17.60;53.50;;;;;;6215997;23;20008;-77
2023/03/17 10:40:58;;;;;;;3.35;0.90;;;17.70;53.80;;;;;;6215397;23;20024;-76
2023/03/17 10:43:30;;;;;;;5.00;1.08;;;17.60;53.70;;;;;;6215659;23;20053;-76
2023/03/17 10:46:00;;;;;;;5.55;1.20;;;17.70;53.70;;;;;;6215981;23;20321;-76
2023/03/17 10:48:27;;;;;;;3.33;1.50;;;17.70;53.70;;;;;;6225704;23;20066;-76
2023/03/17 10:50:57;;;;;;;3.58;0.98;;;17.70;53.70;;;;;;6225864;23;19997;-76
2023/03/17 10:53:28;;;;;;;2.27;0.90;;;17.70;53.70;;;;;;6225664;23;20341;-76
2023/03/17 10:55:59;;;;;;;2.72;0.93;;;17.70;53.70;;;;;;6225793;23;20244;-76
2023/03/17 10:58:36;;;;;;;1.73;0.75;;;17.70;53.80;;;;;;6225704;23;19993;-76
2023/03/17 11:01:04;;;;;;;1.13;0.90;;;17.70;61.70;;;;;;6215714;23;20005;-76
2023/03/17 11:03:34;;;;;;;1.20;0.68;;;17.70;53.80;;;;;;6215416;23;20114;-76
2023/03/17 11:06:02;;;;;;;1.88;1.23;;;17.70;53.70;;;;;;6225694;23;20004;-76
2023/03/17 11:08:54;;;;;;;2.40;1.00;;;17.80;53.80;;;;;;6215852;23;19992;-76
2023/03/17 11:11:28;;;;;;;2.88;1.17;;;17.80;53.70;;;;;;6215741;23;20371;-76
2023/03/17 11:14:15;;;;;;;1.23;0.90;;;17.80;53.60;;;;;;6225447;23;19993;-78
2023/03/17 11:17:15;;;;;;;1.70;0.90;;;17.90;53.60;;;;;;6225471;23;20001;-77
2023/03/17 11:20:08;;;;;;;1.48;1.00;;;17.90;53.60;;;;;;6225401;23;20001;-77
2023/03/17 11:22:37;;;;;;;2.55;1.00;;;17.90;53.60;;;;;;6225271;23;20004;-78
2023/03/17 11:25:22;;;;;;;4.30;1.27;;;17.90;53.60;;;;;;6225544;23;20071;-76
2023/03/17 11:28:01;;;;;;;1.40;1.02;;;18.00;53.60;;;;;;6225455;23;20024;-73
2023/03/17 11:30:33;;;;;;;2.72;1.13;;;18.00;53.70;;;;;;6225260;23;19993;-78
2023/03/17 11:33:27;;;;;;;2.85;1.13;;;18.00;53.60;;;;;;6225335;23;20000;-80
2023/03/17 11:36:09;;;;;;;3.10;0.93;;;18.10;53.60;;;;;;6225305;23;19996;-81
2023/03/17 11:38:42;;;;;;;0.70;0.70;;;18.10;53.60;;;;;;6225302;23;20004;-80
2023/03/17 11:41:13;;;;;;;0.98;0.88;;;18.20;53.50;;;;;;6225244;23;20443;-79
2023/03/17 11:44:23;;;;;;;3.08;1.10;;;18.20;53.60;;;;;;6225357;23;19997;-80
2023/03/17 11:47:17;;;;;;;1.65;0.88;;;18.20;53.60;;;;;;6193317;23;20003;-78
2023/03/17 11:49:49;;;;;;;1.95;0.80;;;18.20;53.40;;;;;;6225201;23;19997;-78
2023/03/17 11:52:33;;;;;;;2.30;0.93;;;18.30;53.50;;;;;;6224766;23;19996;-77
2023/03/17 11:55:50;;;;;;;1.40;0.90;;;18.30;53.50;;;;;;6225202;23;19997;-78
2023/03/17 11:58:30;;;;;;;1.45;0.70;;;18.40;53.60;;;;;;6198553;23;20317;-76
2023/03/17 12:00:59;;;;;;;2.30;0.90;;;18.40;53.30;;;;;;6224766;23;20024;-77
2023/03/17 12:03:35;;;;;;;2.05;1.00;;;18.40;53.80;;;;;;6223513;23;20023;-77
2023/03/17 12:06:04;;;;;;;1.38;0.90;;;18.40;53.90;;;;;;6211479;23;20451;-77
2023/03/17 12:08:44;;;;;;;2.83;1.10;;;18.40;54.00;;;;;;6212962;23;20047;-77
2023/03/17 12:11:17;;;;;;;3.00;1.10;;;18.40;54.10;;;;;;6222414;23;20016;-76
2023/03/17 12:13:53;;;;;;;1.70;0.90;;;18.40;54.10;;;;;;6212442;23;20375;-77
2023/03/17 12:16:26;;;;;;;1.55;0.93;;;18.40;54.30;;;;;;6211678;23;20060;-77
2023/03/17 12:19:18;;;;;;;1.92;1.10;;;18.50;54.40;;;;;;6223501;23;20000;-77
2023/03/17 12:21:55;;;;;;;2.03;1.17;;;18.50;54.40;;;;;;6213366;23;20440;-77
2023/03/17 12:24:39;;;;;;;3.28;1.10;;;18.40;54.40;;;;;;6213516;23;20054;-77
2023/03/17 12:27:14;;;;;;;1.40;1.00;;;18.40;54.60;;;;;;6223509;23;19997;-77
2023/03/17 12:29:53;;;;;;;1.02;0.90;;;18.40;54.60;;;;;;6223470;23;19996;-79
2023/03/17 12:32:19;;;;;;;1.48;0.98;;;18.50;54.80;;;;;;6223463;23;20024;-78
2023/03/17 12:34:51;;;;;;;1.08;0.80;;;18.50;54.80;;;;;;6213493;23;20327;-78
2023/03/17 12:37:18;;;;;;;1.88;1.00;;;18.50;54.70;;;;;;6223410;23;19996;-79
2023/03/17 12:40:01;;;;;;;1.90;1.25;;;18.50;54.80;;;;;;6223315;23;19997;-78
2023/03/17 12:42:56;;;;;;;1.98;1.02;;;18.50;54.80;;;;;;6213376;23;20289;-78
2023/03/17 12:45:40;;;;;;;2.88;1.13;;;18.50;54.80;;;;;;6223188;23;20007;-78
2023/03/17 12:48:56;;;;;;;1.45;1.00;;;18.50;54.80;;;;;;6213559;23;20001;-79
2023/03/17 12:51:47;;;;;;;2.42;0.90;;;18.60;54.90;;;;;;6157934;23;20073;-78
2023/03/17 12:54:20;;;;;;;4.22;1.00;;;18.60;54.90;;;;;;6213432;23;20004;-78
2023/03/17 12:56:48;;;;;;;2.50;1.33;;;18.60;54.80;;;;;;6213516;23;20072;-78
2023/03/17 12:59:20;;;;;;;2.50;1.17;;;18.60;54.90;;;;;;6213160;23;20004;-78
2023/03/17 13:02:04;;;;;;;1.73;1.10;;;18.60;54.80;;;;;;6166259;23;1092688;-78